createdAt,value
2022-08-22T00:02:33.922Z,12.51
2022-08-22T00:02:45.630Z,16.04
2022-08-22T00:02:59.340Z,12.65
2022-08-22T00:03:00.571Z,16.73
2022-08-22T00:05:19.609Z,12.41
2022-08-22T00:08:08.899Z,12.41
2022-08-22T00:10:43.289Z,12.59
2022-08-22T00:13:25.752Z,12.56
2022-08-22T00:16:02.394Z,12.64
2022-08-22T00:18:38.084Z,12.69
2022-08-22T00:21:29.594Z,12.59
2022-08-22T00:24:25.845Z,12.70
2022-08-22T00:27:16.328Z,12.81
2022-08-22T00:29:51.431Z,12.87
2022-08-22T00:32:52.960Z,12.63
2022-08-22T00:35:40.560Z,12.81
2022-08-22T00:38:29.440Z,12.83
2022-08-22T00:41:54.533Z,12.85
2022-08-22T00:44:23.995Z,12.91
2022-08-22T00:47:10.489Z,12.75
2022-08-22T00:49:58.631Z,12.67
2022-08-22T00:52:28.270Z,12.77
2022-08-22T00:55:00.974Z,12.78
2022-08-22T00:58:06.289Z,12.78
2022-08-22T01:00:42.554Z,12.77
2022-08-22T01:03:23.965Z,12.70
2022-08-22T01:06:13.633Z,12.69
2022-08-22T01:08:56.456Z,12.81
2022-08-22T01:11:41.713Z,12.67
2022-08-22T01:14:38.625Z,12.68
2022-08-22T01:17:34.235Z,12.59
2022-08-22T01:20:19.859Z,12.46
2022-08-22T01:23:08.547Z,12.51
2022-08-22T01:26:12.591Z,12.67
2022-08-22T01:28:55.287Z,12.64
2022-08-22T01:31:40.592Z,12.59
2022-08-22T01:34:39.489Z,12.64
2022-08-22T01:37:27.375Z,12.43
2022-08-22T01:40:21.983Z,12.39
2022-08-22T01:43:06.198Z,12.43
2022-08-22T01:46:21.605Z,12.35
2022-08-22T01:48:55.761Z,12.37
2022-08-22T01:51:36.377Z,12.43
2022-08-22T01:54:08.313Z,12.51
2022-08-22T01:56:41.870Z,12.37
2022-08-22T01:59:11.156Z,12.36
2022-08-22T02:01:50.827Z,12.37
2022-08-22T02:04:34.507Z,12.54
2022-08-22T02:07:08.999Z,12.28
2022-08-22T02:09:38.721Z,12.33
2022-08-22T02:12:21.501Z,12.18
2022-08-22T02:15:19.728Z,12.11
2022-08-22T02:18:09.047Z,12.38
2022-08-22T02:20:53.966Z,12.26
2022-08-22T02:23:35.550Z,12.33
2022-08-22T02:26:02.191Z,12.27
2022-08-22T02:28:39.129Z,12.44
2022-08-22T02:31:39.994Z,12.27
2022-08-22T02:34:34.111Z,12.28
2022-08-22T02:37:09.988Z,12.04
2022-08-22T02:39:39.959Z,12.09
2022-08-22T02:42:25.343Z,12.15
2022-08-22T02:45:03.356Z,12.22
2022-08-22T02:47:33.271Z,12.16
2022-08-22T02:50:51.922Z,12.16
2022-08-22T02:53:27.825Z,12.33
2022-08-22T02:56:06.359Z,12.30
2022-08-22T02:58:59.260Z,12.29
2022-08-22T03:01:32.381Z,12.29
2022-08-22T03:04:23.229Z,12.12
2022-08-22T03:07:08.094Z,12.13
2022-08-22T03:09:47.480Z,12.06
2022-08-22T03:12:38.992Z,12.12
2022-08-22T03:15:24.210Z,11.97
2022-08-22T03:18:00.820Z,12.06
2022-08-22T03:20:59.014Z,12.06
2022-08-22T03:23:55.163Z,12.06
2022-08-22T03:26:32.781Z,12.12
2022-08-22T03:29:27.760Z,12.13
2022-08-22T03:32:09.678Z,12.15
2022-08-22T03:34:37.844Z,12.16
2022-08-22T03:37:24.514Z,12.10
2022-08-22T03:39:51.445Z,12.05
2022-08-22T03:43:00.183Z,12.18
2022-08-22T03:45:51.618Z,12.15
2022-08-22T03:48:36.751Z,12.05
2022-08-22T03:51:19.158Z,12.05
2022-08-22T03:54:34.983Z,12.17
2022-08-22T03:57:07.478Z,12.16
2022-08-22T03:59:52.736Z,12.15
2022-08-22T04:02:48.570Z,12.26
2022-08-22T04:05:36.012Z,12.22
2022-08-22T04:08:45.958Z,12.22
2022-08-22T04:11:24.481Z,12.04
2022-08-22T04:14:14.012Z,12.36
2022-08-22T04:16:40.612Z,12.35
2022-08-22T04:19:25.357Z,12.29
2022-08-22T04:22:12.171Z,12.16
2022-08-22T04:24:54.062Z,11.99
2022-08-22T04:27:37.884Z,11.95
2022-08-22T04:30:04.513Z,12.07
2022-08-22T04:32:41.563Z,12.04
2022-08-22T04:35:17.684Z,12.15
2022-08-22T04:37:56.482Z,12.23
2022-08-22T04:40:34.697Z,12.18
2022-08-22T04:43:11.316Z,12.09
2022-08-22T04:45:52.128Z,12.07
2022-08-22T04:48:34.913Z,12.27
2022-08-22T04:51:05.932Z,12.38
2022-08-22T04:54:09.944Z,12.36
2022-08-22T04:57:15.595Z,12.37
2022-08-22T04:59:44.006Z,12.40
2022-08-22T05:02:12.510Z,12.52
2022-08-22T05:04:44.292Z,12.47
2022-08-22T05:07:20.396Z,12.55
2022-08-22T05:09:54.040Z,12.23
2022-08-22T05:12:29.246Z,12.31
2022-08-22T05:15:06.435Z,12.58
2022-08-22T05:17:38.602Z,12.47
2022-08-22T05:20:12.763Z,12.50
2022-08-22T05:22:48.116Z,12.57
2022-08-22T05:25:22.032Z,12.39
2022-08-22T05:27:56.966Z,12.29
2022-08-22T05:30:28.389Z,12.55
2022-08-22T05:33:03.942Z,12.55
2022-08-22T05:35:40.434Z,12.46
2022-08-22T05:38:10.334Z,12.34
2022-08-22T05:40:38.605Z,12.37
2022-08-22T05:43:10.233Z,12.53
2022-08-22T05:45:40.454Z,12.35
2022-08-22T05:48:17.324Z,12.41
2022-08-22T05:51:01.114Z,12.55
2022-08-22T05:53:35.933Z,12.54
2022-08-22T05:56:08.998Z,12.54
2022-08-22T05:58:55.849Z,12.27
2022-08-22T06:01:52.190Z,12.00
2022-08-22T06:04:54.677Z,12.24
2022-08-22T06:07:26.488Z,12.28
2022-08-22T06:09:56.201Z,12.15
2022-08-22T06:12:33.517Z,12.40
2022-08-22T06:15:21.025Z,12.26
2022-08-22T06:17:51.169Z,12.24
2022-08-22T06:20:39.599Z,12.53
2022-08-22T06:23:08.441Z,12.44
2022-08-22T06:25:44.320Z,12.30
2022-08-22T06:28:25.203Z,12.37
2022-08-22T06:30:55.699Z,12.90
2022-08-22T06:33:28.466Z,12.39
2022-08-22T06:36:21.700Z,12.64
2022-08-22T06:39:10.988Z,12.71
2022-08-22T06:41:42.916Z,12.56
2022-08-22T06:44:17.674Z,12.65
2022-08-22T06:46:47.615Z,12.59
2022-08-22T06:49:16.706Z,12.92
2022-08-22T06:51:45.227Z,12.82
2022-08-22T06:54:19.339Z,12.98
2022-08-22T06:56:49.540Z,12.82
2022-08-22T06:59:22.921Z,12.73
2022-08-22T07:02:24.976Z,12.65
2022-08-22T07:04:52.049Z,12.96
2022-08-22T07:07:20.335Z,12.74
2022-08-22T07:09:51.813Z,12.67
2022-08-22T07:12:21.592Z,12.59
2022-08-22T07:14:53.067Z,12.77
2022-08-22T07:17:25.887Z,12.99
2022-08-22T07:20:22.596Z,12.93
2022-08-22T07:22:57.478Z,13.07
2022-08-22T07:25:25.236Z,13.10
2022-08-22T07:28:16.083Z,13.28
2022-08-22T07:31:12.416Z,13.24
2022-08-22T07:33:50.024Z,13.17
2022-08-22T07:36:28.396Z,12.91
2022-08-22T07:39:11.207Z,13.32
2022-08-22T07:42:03.467Z,12.89
2022-08-22T07:44:39.534Z,13.03
2022-08-22T07:47:16.397Z,13.05
2022-08-22T07:49:53.147Z,13.16
2022-08-22T07:52:21.452Z,12.80
2022-08-22T07:55:05.657Z,13.28
2022-08-22T07:57:40.141Z,13.50
2022-08-22T08:00:15.174Z,13.18
2022-08-22T08:02:47.984Z,13.63
2022-08-22T08:05:15.180Z,13.32
2022-08-22T08:07:45.619Z,13.25
2022-08-22T08:10:20.375Z,13.16
2022-08-22T08:12:57.980Z,13.50
2022-08-22T08:15:32.992Z,13.60
2022-08-22T08:18:05.493Z,13.52
2022-08-22T08:20:35.661Z,13.70
2022-08-22T08:23:07.031Z,13.57
2022-08-22T08:25:48.955Z,13.50
2022-08-22T08:28:37.815Z,13.68
2022-08-22T08:31:18.342Z,13.68
2022-08-22T08:33:48.689Z,14.03
2022-08-22T08:36:38.778Z,13.57
2022-08-22T08:39:15.827Z,13.99
2022-08-22T08:41:45.506Z,14.33
2022-08-22T08:44:35.768Z,14.03
2022-08-22T08:47:27.829Z,13.86
2022-08-22T08:50:40.911Z,13.80
2022-08-22T08:53:29.231Z,14.35
2022-08-22T08:56:22.358Z,14.77
2022-08-22T08:59:10.036Z,14.62
2022-08-22T09:02:13.908Z,14.87
2022-08-22T09:05:22.067Z,14.70
2022-08-22T09:07:57.253Z,14.53
2022-08-22T09:10:57.137Z,14.34
2022-08-22T09:13:42.195Z,14.69
2022-08-22T09:16:20.981Z,14.41
2022-08-22T09:19:15.206Z,14.48
2022-08-22T09:22:16.215Z,14.22
2022-08-22T09:25:38.548Z,14.40
2022-08-22T09:28:18.771Z,13.72
2022-08-22T09:30:54.185Z,13.79
2022-08-22T09:33:24.944Z,13.85
2022-08-22T09:36:13.280Z,13.67
2022-08-22T09:39:07.384Z,13.73
2022-08-22T09:41:48.274Z,13.53
2022-08-22T09:44:43.835Z,12.87
2022-08-22T09:47:57.183Z,13.46
2022-08-22T09:50:43.114Z,13.54
2022-08-22T09:53:28.482Z,13.65
2022-08-22T09:56:11.531Z,13.58
2022-08-22T09:58:55.922Z,13.82
2022-08-22T10:01:42.497Z,13.79
2022-08-22T10:04:19.577Z,13.80
2022-08-22T10:06:55.464Z,13.89
2022-08-22T10:09:31.334Z,14.46
2022-08-22T10:12:05.108Z,14.51
2022-08-22T10:15:07.010Z,14.20
2022-08-22T10:17:41.108Z,14.35
2022-08-22T10:20:44.743Z,14.26
2022-08-22T10:23:17.678Z,14.36
2022-08-22T10:26:22.901Z,14.21
2022-08-22T10:28:58.075Z,14.30
2022-08-22T10:32:14.573Z,14.04
2022-08-22T10:34:46.391Z,14.48
2022-08-22T10:37:37.257Z,14.35
2022-08-22T10:40:36.013Z,14.13
2022-08-22T10:43:19.410Z,14.15
2022-08-22T10:45:52.391Z,14.52
2022-08-22T10:48:26.006Z,14.52
2022-08-22T10:51:22.658Z,14.59
2022-08-22T10:53:58.091Z,14.15
2022-08-22T10:56:32.476Z,14.30
2022-08-22T10:59:05.481Z,14.30
2022-08-22T11:01:42.206Z,13.95
2022-08-22T11:04:34.732Z,14.42
2022-08-22T11:07:35.712Z,14.07
2022-08-22T11:10:11.832Z,14.01
2022-08-22T11:12:48.514Z,14.00
2022-08-22T11:15:52.386Z,13.64
2022-08-22T11:18:51.499Z,14.07
2022-08-22T11:22:03.828Z,13.99
2022-08-22T11:24:55.818Z,13.97
2022-08-22T11:27:54.007Z,13.87
2022-08-22T11:30:31.553Z,13.93
2022-08-22T11:33:47.133Z,13.79
2022-08-22T11:36:55.569Z,13.95
2022-08-22T11:40:06.222Z,13.98
2022-08-22T11:42:48.814Z,14.06
2022-08-22T11:45:23.597Z,13.87
2022-08-22T11:48:02.636Z,14.11
2022-08-22T11:50:43.512Z,14.15
2022-08-22T11:53:33.036Z,13.80
2022-08-22T11:56:48.862Z,13.77
2022-08-22T11:59:54.312Z,14.10
2022-08-22T12:02:37.801Z,14.04
2022-08-22T12:05:13.699Z,13.96
2022-08-22T12:08:05.636Z,13.71
2022-08-22T12:10:35.772Z,13.73
2022-08-22T12:13:08.712Z,13.46
2022-08-22T12:15:53.903Z,13.40
2022-08-22T12:19:05.315Z,13.53
2022-08-22T12:21:57.639Z,13.46
2022-08-22T12:25:02.730Z,13.52
2022-08-22T12:27:56.131Z,13.29
2022-08-22T12:30:51.756Z,13.75
2022-08-22T12:33:33.900Z,13.70
2022-08-22T12:36:45.943Z,14.04
2022-08-22T12:39:41.759Z,14.09
2022-08-22T12:42:48.999Z,13.75
2022-08-22T12:45:56.028Z,14.11
2022-08-22T12:49:07.787Z,14.01
2022-08-22T12:52:00.950Z,13.63
2022-08-22T12:54:43.414Z,14.08
2022-08-22T12:57:23.937Z,14.12
2022-08-22T13:00:03.768Z,14.07
2022-08-22T13:02:39.508Z,13.93
2022-08-22T13:05:19.674Z,13.85
2022-08-22T13:08:04.371Z,14.25
2022-08-22T13:10:52.330Z,14.20
2022-08-22T13:13:31.363Z,14.27
2022-08-22T13:16:15.641Z,14.34
2022-08-22T13:18:59.025Z,14.53
2022-08-22T13:21:36.216Z,14.72
2022-08-22T13:24:22.579Z,14.73
2022-08-22T13:27:01.818Z,14.42
2022-08-22T13:29:44.992Z,14.54
2022-08-22T13:32:23.480Z,14.41
2022-08-22T13:34:56.182Z,14.25
2022-08-22T13:37:30.259Z,14.65
2022-08-22T13:40:02.093Z,14.33
2022-08-22T13:42:32.620Z,14.27
2022-08-22T13:45:05.468Z,14.31
2022-08-22T13:47:35.797Z,14.18
2022-08-22T13:50:21.847Z,14.36
2022-08-22T13:52:58.496Z,14.42
2022-08-22T13:55:44.861Z,14.54
2022-08-22T13:58:44.997Z,14.67
2022-08-22T14:01:21.551Z,14.19
2022-08-22T14:04:08.442Z,14.64
2022-08-22T14:07:27.349Z,14.38
2022-08-22T14:09:58.067Z,14.30
2022-08-22T14:12:50.821Z,14.23
2022-08-22T14:15:46.001Z,14.22
2022-08-22T14:18:30.532Z,14.11
2022-08-22T14:21:16.333Z,14.29
2022-08-22T14:23:44.912Z,14.46
2022-08-22T14:26:32.737Z,14.08
2022-08-22T14:29:03.698Z,14.26
2022-08-22T14:31:31.192Z,14.22
2022-08-22T14:34:10.612Z,14.07
2022-08-22T14:36:59.249Z,13.87
2022-08-22T14:39:42.894Z,13.74
2022-08-22T14:42:18.472Z,13.92
2022-08-22T14:44:51.260Z,13.94
2022-08-22T14:48:14.043Z,14.05
2022-08-22T14:50:34.740Z,13.95
2022-08-22T14:53:11.956Z,14.01
2022-08-22T14:55:41.264Z,13.97
2022-08-22T14:58:26.425Z,13.80
2022-08-22T15:00:56.335Z,13.87
2022-08-22T15:03:33.071Z,14.01
2022-08-22T15:06:05.089Z,13.70
2022-08-22T15:08:34.558Z,13.62
2022-08-22T15:11:13.929Z,13.98
2022-08-22T15:13:50.320Z,13.92
2022-08-22T15:16:44.672Z,13.91
2022-08-22T15:19:33.177Z,13.95
2022-08-22T15:22:27.557Z,13.95
2022-08-22T15:25:20.713Z,13.86
2022-08-22T15:27:54.485Z,13.89
2022-08-22T15:30:56.833Z,13.90
2022-08-22T15:33:29.414Z,14.01
2022-08-22T15:36:15.922Z,14.20
2022-08-22T15:38:50.166Z,14.13
2022-08-22T15:41:22.931Z,14.15
2022-08-22T15:44:32.463Z,14.32
2022-08-22T15:47:11.822Z,14.47
2022-08-22T15:50:05.495Z,14.12
2022-08-22T15:52:57.162Z,14.26
2022-08-22T15:55:34.459Z,14.23
2022-08-22T15:58:22.103Z,14.16
2022-08-22T16:01:19.937Z,14.21
2022-08-22T16:04:07.855Z,14.37
2022-08-22T16:06:54.042Z,14.43
2022-08-22T16:09:42.712Z,14.34
2022-08-22T16:12:25.140Z,14.26
2022-08-22T16:14:53.314Z,14.13
2022-08-22T16:17:25.957Z,14.31
2022-08-22T16:20:07.717Z,14.13
2022-08-22T16:22:58.311Z,14.07
2022-08-22T16:25:47.530Z,14.09
2022-08-22T16:28:57.844Z,13.53
2022-08-22T16:31:46.131Z,13.76
2022-08-22T16:34:16.164Z,14.20
2022-08-22T16:36:50.714Z,13.61
2022-08-22T16:39:20.548Z,13.70
2022-08-22T16:41:50.607Z,13.74
2022-08-22T16:44:29.471Z,13.61
2022-08-22T16:47:11.254Z,13.76
2022-08-22T16:49:56.326Z,13.65
2022-08-22T16:52:26.057Z,13.62
2022-08-22T16:55:00.371Z,13.57
2022-08-22T16:57:59.432Z,13.48
2022-08-22T17:00:37.002Z,13.60
2022-08-22T17:03:28.473Z,13.52
2022-08-22T17:06:14.084Z,13.57
2022-08-22T17:09:09.212Z,13.83
2022-08-22T17:11:42.016Z,13.53
2022-08-22T17:14:27.574Z,13.63
2022-08-22T17:17:39.057Z,13.59
2022-08-22T17:20:20.313Z,13.52
2022-08-22T17:23:11.166Z,13.81
2022-08-22T17:25:37.794Z,13.57
2022-08-22T17:28:19.833Z,13.58
2022-08-22T17:31:07.148Z,13.61
2022-08-22T17:34:02.044Z,13.62
2022-08-22T17:36:40.826Z,13.42
2022-08-22T17:39:19.513Z,13.51
2022-08-22T17:42:36.397Z,13.65
2022-08-22T17:45:45.771Z,13.60
2022-08-22T17:48:18.686Z,13.56
2022-08-22T17:50:49.015Z,13.45
2022-08-22T17:53:30.882Z,13.51
2022-08-22T17:56:13.694Z,13.36
2022-08-22T17:59:10.490Z,13.37
2022-08-22T18:02:01.166Z,13.35
2022-08-22T18:04:57.876Z,13.28
2022-08-22T18:07:32.775Z,13.29
2022-08-22T18:10:04.694Z,13.15
2022-08-22T18:12:55.904Z,13.33
2022-08-22T18:15:38.636Z,13.24
2022-08-22T18:18:37.195Z,12.99
2022-08-22T18:21:40.438Z,13.22
2022-08-22T18:24:24.759Z,13.32
2022-08-22T18:27:01.310Z,13.16
2022-08-22T18:29:45.528Z,13.29
2022-08-22T18:32:20.974Z,13.09
2022-08-22T18:35:26.262Z,13.19
2022-08-22T18:38:19.950Z,13.21
2022-08-22T18:40:54.342Z,13.26
2022-08-22T18:43:26.728Z,13.15
2022-08-22T18:45:58.252Z,13.09
2022-08-22T18:48:31.217Z,13.03
2022-08-22T18:51:31.831Z,13.19
2022-08-22T18:54:03.850Z,12.80
2022-08-22T18:56:43.433Z,13.21
2022-08-22T18:59:28.963Z,13.24
2022-08-22T19:02:27.788Z,13.22
2022-08-22T19:05:14.697Z,13.06
2022-08-22T19:08:08.316Z,13.10
2022-08-22T19:11:04.778Z,13.23
2022-08-22T19:13:56.176Z,13.06
2022-08-22T19:16:54.923Z,12.92
2022-08-22T19:19:57.650Z,13.17
2022-08-22T19:22:32.504Z,13.10
2022-08-22T19:25:14.102Z,13.15
2022-08-22T19:28:03.923Z,13.18
2022-08-22T19:30:42.268Z,13.12
2022-08-22T19:33:10.247Z,13.15
2022-08-22T19:35:51.072Z,13.15
2022-08-22T19:38:55.616Z,13.24
2022-08-22T19:41:56.821Z,13.05
2022-08-22T19:44:23.411Z,13.14
2022-08-22T19:47:17.733Z,13.09
2022-08-22T19:50:00.339Z,13.15
2022-08-22T19:52:51.972Z,13.19
2022-08-22T19:55:30.839Z,13.12
2022-08-22T19:58:12.930Z,13.02
2022-08-22T20:00:57.818Z,13.03
2022-08-22T20:03:49.936Z,13.14
2022-08-22T20:06:44.336Z,13.16
2022-08-22T20:09:35.554Z,13.17
2022-08-22T20:12:19.237Z,13.13
2022-08-22T20:14:47.592Z,13.15
2022-08-22T20:17:26.312Z,13.07
2022-08-22T20:22:52.848Z,13.26
2022-08-22T20:25:44.392Z,13.10
2022-08-22T20:28:26.378Z,13.15
2022-08-22T20:30:58.422Z,13.12
2022-08-22T20:33:29.415Z,13.08
2022-08-22T20:36:03.571Z,13.15
2022-08-22T20:38:35.496Z,13.16
2022-08-22T20:41:36.934Z,13.15
2022-08-22T20:44:12.584Z,13.06
2022-08-22T20:46:55.258Z,13.08
2022-08-22T20:49:28.677Z,13.17
2022-08-22T20:52:01.907Z,13.21
2022-08-22T20:54:31.639Z,13.22
2022-08-22T20:57:16.054Z,13.28
2022-08-22T20:59:52.474Z,13.20
2022-08-22T21:02:24.026Z,13.17
2022-08-22T21:05:08.054Z,13.15
2022-08-22T21:07:43.908Z,13.10
2022-08-22T21:10:41.302Z,13.22
2022-08-22T21:13:27.578Z,13.14
2022-08-22T21:16:11.495Z,12.72
2022-08-22T21:18:45.740Z,12.78
2022-08-22T21:21:26.814Z,12.58
2022-08-22T21:24:01.270Z,12.44
2022-08-22T21:26:53.816Z,12.52
2022-08-22T21:29:26.450Z,12.43
2022-08-22T21:32:04.584Z,12.58
2022-08-22T21:34:45.388Z,12.45
2022-08-22T21:37:18.687Z,12.45
2022-08-22T21:39:53.141Z,12.64
2022-08-22T21:42:26.777Z,12.63
2022-08-22T21:44:56.304Z,12.56
2022-08-22T21:47:31.277Z,12.54
2022-08-22T21:50:14.260Z,12.53
2022-08-22T21:52:59.918Z,12.55
2022-08-22T21:56:10.798Z,12.68
2022-08-22T21:58:38.763Z,12.54
2022-08-22T22:01:22.207Z,12.67
2022-08-22T22:03:52.014Z,12.50
2022-08-22T22:06:18.698Z,12.32
2022-08-22T22:08:46.238Z,12.21
2022-08-22T22:11:14.995Z,12.27
2022-08-22T22:13:42.330Z,12.25
2022-08-22T22:16:12.098Z,12.12
2022-08-22T22:18:39.643Z,12.28
2022-08-22T22:21:06.563Z,12.05
2022-08-22T22:23:33.236Z,12.09
2022-08-22T22:26:02.623Z,12.20
2022-08-22T22:28:36.489Z,12.17
2022-08-22T22:31:03.942Z,12.17
2022-08-22T22:33:41.458Z,12.32
2022-08-22T22:36:16.505Z,12.36
2022-08-22T22:38:43.334Z,12.39
2022-08-22T22:41:11.276Z,12.41
2022-08-22T22:43:38.058Z,12.43
2022-08-22T22:46:06.455Z,12.62
2022-08-22T22:48:33.691Z,12.55
2022-08-22T22:51:06.942Z,12.59
2022-08-22T22:53:40.340Z,12.57
2022-08-22T22:56:12.614Z,12.44
2022-08-22T22:58:40.110Z,12.49
2022-08-22T23:01:26.666Z,12.57
2022-08-22T23:03:55.879Z,12.52
2022-08-22T23:06:25.239Z,12.65
2022-08-22T23:08:52.791Z,12.63
2022-08-22T23:11:25.844Z,12.69
2022-08-22T23:13:53.272Z,12.74
2022-08-22T23:16:23.476Z,12.66
2022-08-22T23:18:50.695Z,12.83
2022-08-22T23:21:20.580Z,12.68
2022-08-22T23:23:48.205Z,12.51
2022-08-22T23:26:15.558Z,12.62
2022-08-22T23:28:42.618Z,12.63
2022-08-22T23:31:15.928Z,12.54
2022-08-22T23:33:43.930Z,12.71
2022-08-22T23:36:17.163Z,12.55
2022-08-22T23:38:44.766Z,12.54
2022-08-22T23:41:13.464Z,12.40
2022-08-22T23:43:49.297Z,12.27
2022-08-22T23:46:18.506Z,12.18
2022-08-22T23:48:45.770Z,12.25
2022-08-22T23:51:14.750Z,12.36
2022-08-22T23:53:42.349Z,12.35
2022-08-22T23:56:19.520Z,12.13
2022-08-22T23:58:49.065Z,12.23
